PHJR

Kalaeloa (John Rodgers Field) Airport

Kapolei, Hawaii, USA
PHJR 261120Z 2612/2712 06006KT P6SM FEW025 FM262000 12009KT P6SM SCT025 SCT050 FM270500 VRB03KT P6SM FEW025
Issued Valid From Valid To
Apr-26 @ 11:20 UTC
(2 hours ago)
Apr-26 @ 12:00 UTC
(2 hours ago)
Apr-27 @ 12:00 UTC
(in 22 hours)
Apr-26 @ 12:00 to Apr-26 @ 20:00
PHJR 261120Z 2612/2712 06006KT P6SM FEW025
Wind Visibility Clouds
60° at 6 knots Greater than 6 miles
  • Few at 2,500' AGL
From Apr-26 @ 20:00 to Apr-27 @ 05:00
FM262000 12009KT P6SM SCT025 SCT050
Wind Visibility Clouds
120° at 9 knots Greater than 6 miles
  • Scattered at 2,500' AGL
  • Scattered at 5,000' AGL
From Apr-27 @ 05:00 to Apr-27 @ 12:00
FM270500 VRB03KT P6SM FEW025
Wind Visibility Clouds
Variable at 3 knots Greater than 6 miles
  • Few at 2,500' AGL
PHJR 261120Z 2612/2712 06006KT P6SM FEW025 FM262000 12009KT P6SM SCT025 SCT050 FM270500 VRB03KT P6SM FEW025
Issued Apr-26 @ 11:20 UTC
(2 hours ago)
Valid From Apr-26 @ 12:00 UTC
(2 hours ago)
Valid To Apr-27 @ 12:00 UTC
(in 22 hours)
Apr-26 @ 12:00 - Apr-26 @ 20:00
Wind Visibility
60° at 6 knots Greater than 6 miles
Clouds
  • Few at 2,500' AGL
From Apr-26 @ 20:00 - Apr-27 @ 05:00
Wind Visibility
120° at 9 knots Greater than 6 miles
Clouds
  • Scattered at 2,500' AGL
  • Scattered at 5,000' AGL
From Apr-27 @ 05:00 - Apr-27 @ 12:00
Wind Visibility
Variable at 3 knots Greater than 6 miles
Clouds
  • Few at 2,500' AGL